Terminal Aerodrome Forecast
Issued by NWS

Home | Current Version | Previous Version | Text Only | Print | Product List | Glossary On
Versions: 1 2 3 4 5 6 7 8 9 10 11 12 13 14
000
FTUS42 KTBW 012339
TAFRSW
TAF
KRSW 012339Z 0200/0224 20006KT P6SM VCTS SCT035CB BKN250
     FM020600 16004KT P6SM BKN150 OVC250
     FM021200 VRB05KT P6SM VCTS FEW025CB BKN100 OVC250
     FM021500 18008KT P6SM VCTS SCT025CB BKN100 OVC250
     FM022000 24009KT P6SM VCTS SCT025CB BKN100 OVC250=

USA.gov is the U.S. government's official web portal to all federal, state and local government web resources and services.